sensor_id;sensor_type;location;lat;lon;timestamp;P1;durP1;ratioP1;P2;durP2;ratioP2
7193;SDS011;3638;48.820;9.244;2023-12-28T00:02:07;5.63;;;4.50;;
7193;SDS011;3638;48.820;9.244;2023-12-28T00:04:35;4.70;;;4.27;;
7193;SDS011;3638;48.820;9.244;2023-12-28T00:07:03;4.93;;;4.43;;
7193;SDS011;3638;48.820;9.244;2023-12-28T00:09:30;6.37;;;4.67;;
7193;SDS011;3638;48.820;9.244;2023-12-28T00:11:58;4.50;;;4.10;;
7193;SDS011;3638;48.820;9.244;2023-12-28T00:14:25;4.90;;;4.30;;
7193;SDS011;3638;48.820;9.244;2023-12-28T00:16:53;6.80;;;4.60;;
7193;SDS011;3638;48.820;9.244;2023-12-28T00:19:21;7.07;;;4.40;;
7193;SDS011;3638;48.820;9.244;2023-12-28T00:21:49;5.17;;;4.40;;
7193;SDS011;3638;48.820;9.244;2023-12-28T00:24:16;4.63;;;4.23;;
7193;SDS011;3638;48.820;9.244;2023-12-28T00:26:45;5.20;;;4.37;;
7193;SDS011;3638;48.820;9.244;2023-12-28T00:29:13;5.10;;;4.50;;
7193;SDS011;3638;48.820;9.244;2023-12-28T00:31:40;4.77;;;4.37;;
7193;SDS011;3638;48.820;9.244;2023-12-28T00:34:07;5.40;;;4.50;;
7193;SDS011;3638;48.820;9.244;2023-12-28T00:36:36;5.43;;;4.43;;
7193;SDS011;3638;48.820;9.244;2023-12-28T00:39:03;6.03;;;4.20;;
7193;SDS011;3638;48.820;9.244;2023-12-28T00:41:31;5.30;;;4.07;;
7193;SDS011;3638;48.820;9.244;2023-12-28T00:43:58;4.67;;;4.27;;
7193;SDS011;3638;48.820;9.244;2023-12-28T00:46:26;4.67;;;4.27;;
7193;SDS011;3638;48.820;9.244;2023-12-28T00:48:54;3.97;;;3.57;;
7193;SDS011;3638;48.820;9.244;2023-12-28T00:51:21;6.57;;;5.03;;
7193;SDS011;3638;48.820;9.244;2023-12-28T00:53:50;5.27;;;4.57;;
7193;SDS011;3638;48.820;9.244;2023-12-28T00:56:17;4.47;;;4.07;;
7193;SDS011;3638;48.820;9.244;2023-12-28T00:58:45;4.97;;;3.90;;
7193;SDS011;3638;48.820;9.244;2023-12-28T01:01:13;4.50;;;4.10;;
7193;SDS011;3638;48.820;9.244;2023-12-28T01:03:40;5.37;;;4.43;;
7193;SDS011;3638;48.820;9.244;2023-12-28T01:06:07;5.77;;;4.70;;
7193;SDS011;3638;48.820;9.244;2023-12-28T01:08:35;5.23;;;4.47;;
7193;SDS011;3638;48.820;9.244;2023-12-28T01:11:04;4.93;;;4.50;;
7193;SDS011;3638;48.820;9.244;2023-12-28T01:13:31;5.50;;;4.93;;
7193;SDS011;3638;48.820;9.244;2023-12-28T01:16:01;6.53;;;4.87;;
7193;SDS011;3638;48.820;9.244;2023-12-28T01:18:29;6.27;;;5.37;;
7193;SDS011;3638;48.820;9.244;2023-12-28T01:20:56;5.23;;;4.73;;
7193;SDS011;3638;48.820;9.244;2023-12-28T01:23:23;5.90;;;5.27;;
7193;SDS011;3638;48.820;9.244;2023-12-28T01:25:51;6.63;;;5.10;;
7193;SDS011;3638;48.820;9.244;2023-12-28T01:28:20;7.80;;;5.00;;
7193;SDS011;3638;48.820;9.244;2023-12-28T01:30:47;5.63;;;4.90;;
7193;SDS011;3638;48.820;9.244;2023-12-28T01:33:14;6.17;;;5.33;;
7193;SDS011;3638;48.820;9.244;2023-12-28T01:35:42;7.03;;;5.50;;
7193;SDS011;3638;48.820;9.244;2023-12-28T01:38:09;7.43;;;5.00;;
7193;SDS011;3638;48.820;9.244;2023-12-28T01:40:36;5.70;;;4.83;;
7193;SDS011;3638;48.820;9.244;2023-12-28T01:43:04;5.50;;;5.00;;
7193;SDS011;3638;48.820;9.244;2023-12-28T01:45:33;8.50;;;5.10;;
7193;SDS011;3638;48.820;9.244;2023-12-28T01:48:00;5.60;;;5.10;;
7193;SDS011;3638;48.820;9.244;2023-12-28T01:50:27;6.17;;;5.57;;
7193;SDS011;3638;48.820;9.244;2023-12-28T01:52:55;8.73;;;5.53;;
7193;SDS011;3638;48.820;9.244;2023-12-28T01:55:23;5.70;;;5.20;;
7193;SDS011;3638;48.820;9.244;2023-12-28T01:57:51;5.90;;;5.40;;
7193;SDS011;3638;48.820;9.244;2023-12-28T02:00:18;6.93;;;5.70;;
7193;SDS011;3638;48.820;9.244;2023-12-28T02:02:49;7.20;;;4.90;;
7193;SDS011;3638;48.820;9.244;2023-12-28T02:05:17;5.67;;;5.03;;
7193;SDS011;3638;48.820;9.244;2023-12-28T02:07:44;5.87;;;5.20;;
7193;SDS011;3638;48.820;9.244;2023-12-28T02:10:12;5.60;;;5.10;;
7193;SDS011;3638;48.820;9.244;2023-12-28T02:12:39;5.80;;;5.20;;
7193;SDS011;3638;48.820;9.244;2023-12-28T02:15:07;8.87;;;5.43;;
7193;SDS011;3638;48.820;9.244;2023-12-28T02:17:35;6.33;;;5.47;;
7193;SDS011;3638;48.820;9.244;2023-12-28T02:20:06;6.00;;;5.50;;
7193;SDS011;3638;48.820;9.244;2023-12-28T02:22:34;6.07;;;4.93;;
7193;SDS011;3638;48.820;9.244;2023-12-28T02:25:04;7.30;;;5.30;;
7193;SDS011;3638;48.820;9.244;2023-12-28T02:27:33;7.70;;;5.60;;
7193;SDS011;3638;48.820;9.244;2023-12-28T02:30:01;5.90;;;5.30;;
7193;SDS011;3638;48.820;9.244;2023-12-28T02:32:32;5.93;;;5.33;;
7193;SDS011;3638;48.820;9.244;2023-12-28T02:35:08;7.73;;;5.33;;
7193;SDS011;3638;48.820;9.244;2023-12-28T02:37:42;6.00;;;5.50;;
7193;SDS011;3638;48.820;9.244;2023-12-28T02:40:12;6.63;;;5.63;;
7193;SDS011;3638;48.820;9.244;2023-12-28T02:42:42;9.03;;;5.77;;
7193;SDS011;3638;48.820;9.244;2023-12-28T02:45:09;6.83;;;5.70;;
7193;SDS011;3638;48.820;9.244;2023-12-28T02:47:36;6.97;;;5.80;;
7193;SDS011;3638;48.820;9.244;2023-12-28T02:50:04;5.93;;;5.30;;
7193;SDS011;3638;48.820;9.244;2023-12-28T02:52:32;6.37;;;5.77;;
7193;SDS011;3638;48.820;9.244;2023-12-28T02:54:59;6.13;;;5.53;;
7193;SDS011;3638;48.820;9.244;2023-12-28T02:57:28;6.47;;;5.23;;
7193;SDS011;3638;48.820;9.244;2023-12-28T02:59:55;6.00;;;5.27;;
7193;SDS011;3638;48.820;9.244;2023-12-28T03:02:26;5.57;;;5.07;;
7193;SDS011;3638;48.820;9.244;2023-12-28T03:04:54;5.13;;;4.73;;
7193;SDS011;3638;48.820;9.244;2023-12-28T03:07:21;6.10;;;5.20;;
7193;SDS011;3638;48.820;9.244;2023-12-28T03:09:48;5.40;;;4.80;;
7193;SDS011;3638;48.820;9.244;2023-12-28T03:12:15;5.17;;;4.67;;
7193;SDS011;3638;48.820;9.244;2023-12-28T03:14:44;5.40;;;4.90;;
7193;SDS011;3638;48.820;9.244;2023-12-28T03:17:11;6.83;;;5.23;;
7193;SDS011;3638;48.820;9.244;2023-12-28T03:19:38;5.70;;;5.17;;
7193;SDS011;3638;48.820;9.244;2023-12-28T03:22:06;5.33;;;4.83;;
7193;SDS011;3638;48.820;9.244;2023-12-28T03:24:33;5.53;;;5.03;;
7193;SDS011;3638;48.820;9.244;2023-12-28T03:27:02;5.57;;;5.07;;
7193;SDS011;3638;48.820;9.244;2023-12-28T03:29:30;5.73;;;5.20;;
7193;SDS011;3638;48.820;9.244;2023-12-28T03:31:58;8.13;;;5.63;;
7193;SDS011;3638;48.820;9.244;2023-12-28T03:34:25;5.80;;;5.30;;
7193;SDS011;3638;48.820;9.244;2023-12-28T03:36:54;8.70;;;5.43;;
7193;SDS011;3638;48.820;9.244;2023-12-28T03:39:22;6.13;;;5.20;;
7193;SDS011;3638;48.820;9.244;2023-12-28T03:41:49;6.23;;;5.20;;
7193;SDS011;3638;48.820;9.244;2023-12-28T03:44:17;7.17;;;5.30;;
7193;SDS011;3638;48.820;9.244;2023-12-28T03:46:46;5.40;;;4.90;;
7193;SDS011;3638;48.820;9.244;2023-12-28T03:49:18;5.80;;;5.20;;
7193;SDS011;3638;48.820;9.244;2023-12-28T03:51:45;5.43;;;4.43;;
7193;SDS011;3638;48.820;9.244;2023-12-28T03:54:15;6.27;;;4.70;;
7193;SDS011;3638;48.820;9.244;2023-12-28T03:56:42;4.80;;;4.40;;
7193;SDS011;3638;48.820;9.244;2023-12-28T03:59:10;5.70;;;4.57;;
7193;SDS011;3638;48.820;9.244;2023-12-28T04:01:37;5.20;;;4.50;;
7193;SDS011;3638;48.820;9.244;2023-12-28T04:04:04;4.87;;;4.37;;
7193;SDS011;3638;48.820;9.244;2023-12-28T04:06:33;5.23;;;4.73;;
7193;SDS011;3638;48.820;9.244;2023-12-28T04:09:00;6.30;;;4.77;;
7193;SDS011;3638;48.820;9.244;2023-12-28T04:11:28;5.17;;;4.23;;
7193;SDS011;3638;48.820;9.244;2023-12-28T04:13:55;5.83;;;4.80;;
7193;SDS011;3638;48.820;9.244;2023-12-28T04:16:22;5.90;;;4.93;;
7193;SDS011;3638;48.820;9.244;2023-12-28T04:18:49;5.97;;;5.27;;
7193;SDS011;3638;48.820;9.244;2023-12-28T04:21:17;6.30;;;5.50;;
7193;SDS011;3638;48.820;9.244;2023-12-28T04:23:45;5.83;;;5.30;;
7193;SDS011;3638;48.820;9.244;2023-12-28T04:26:12;6.90;;;5.90;;
7193;SDS011;3638;48.820;9.244;2023-12-28T04:28:40;6.50;;;5.90;;
7193;SDS011;3638;48.820;9.244;2023-12-28T04:31:07;8.17;;;6.53;;
7193;SDS011;3638;48.820;9.244;2023-12-28T04:33:34;8.53;;;6.60;;
7193;SDS011;3638;48.820;9.244;2023-12-28T04:36:01;6.70;;;6.00;;
7193;SDS011;3638;48.820;9.244;2023-12-28T04:38:30;6.67;;;5.60;;
7193;SDS011;3638;48.820;9.244;2023-12-28T04:40:59;6.57;;;5.83;;
7193;SDS011;3638;48.820;9.244;2023-12-28T04:43:27;5.97;;;5.30;;
7193;SDS011;3638;48.820;9.244;2023-12-28T04:45:54;5.13;;;4.67;;
7193;SDS011;3638;48.820;9.244;2023-12-28T04:48:21;6.13;;;4.73;;
7193;SDS011;3638;48.820;9.244;2023-12-28T04:50:51;5.73;;;5.10;;
7193;SDS011;3638;48.820;9.244;2023-12-28T04:53:18;6.50;;;5.10;;
7193;SDS011;3638;48.820;9.244;2023-12-28T04:55:46;6.40;;;5.17;;
7193;SDS011;3638;48.820;9.244;2023-12-28T04:58:14;6.77;;;5.10;;
7193;SDS011;3638;48.820;9.244;2023-12-28T05:00:42;6.03;;;4.37;;
7193;SDS011;3638;48.820;9.244;2023-12-28T05:03:09;4.73;;;4.33;;
7193;SDS011;3638;48.820;9.244;2023-12-28T05:05:36;4.60;;;4.10;;
7193;SDS011;3638;48.820;9.244;2023-12-28T05:08:03;4.37;;;3.97;;
7193;SDS011;3638;48.820;9.244;2023-12-28T05:10:31;3.90;;;3.50;;
7193;SDS011;3638;48.820;9.244;2023-12-28T05:12:58;7.60;;;3.97;;
7193;SDS011;3638;48.820;9.244;2023-12-28T05:15:26;4.43;;;3.77;;
7193;SDS011;3638;48.820;9.244;2023-12-28T05:17:54;4.43;;;4.03;;
7193;SDS011;3638;48.820;9.244;2023-12-28T05:20:21;4.30;;;3.90;;
7193;SDS011;3638;48.820;9.244;2023-12-28T05:22:48;4.97;;;4.47;;
7193;SDS011;3638;48.820;9.244;2023-12-28T05:25:15;4.20;;;3.80;;
7193;SDS011;3638;48.820;9.244;2023-12-28T05:27:42;5.37;;;4.20;;
7193;SDS011;3638;48.820;9.244;2023-12-28T05:30:10;5.87;;;4.67;;
7193;SDS011;3638;48.820;9.244;2023-12-28T05:32:38;4.77;;;4.37;;
7193;SDS011;3638;48.820;9.244;2023-12-28T05:35:06;5.67;;;4.63;;
7193;SDS011;3638;48.820;9.244;2023-12-28T05:37:33;6.30;;;4.80;;
7193;SDS011;3638;48.820;9.244;2023-12-28T05:40:00;4.90;;;4.50;;
7193;SDS011;3638;48.820;9.244;2023-12-28T05:42:27;5.37;;;4.77;;
7193;SDS011;3638;48.820;9.244;2023-12-28T05:44:55;6.77;;;5.27;;
7193;SDS011;3638;48.820;9.244;2023-12-28T05:47:22;5.17;;;4.67;;
7193;SDS011;3638;48.820;9.244;2023-12-28T05:49:51;5.80;;;4.83;;
7193;SDS011;3638;48.820;9.244;2023-12-28T05:52:18;6.73;;;4.63;;
7193;SDS011;3638;48.820;9.244;2023-12-28T05:54:46;5.30;;;4.83;;
7193;SDS011;3638;48.820;9.244;2023-12-28T05:57:13;5.33;;;4.40;;
7193;SDS011;3638;48.820;9.244;2023-12-28T05:59:41;6.87;;;4.80;;
7193;SDS011;3638;48.820;9.244;2023-12-28T06:02:08;5.90;;;4.93;;
7193;SDS011;3638;48.820;9.244;2023-12-28T06:04:35;6.33;;;4.50;;
7193;SDS011;3638;48.820;9.244;2023-12-28T06:07:04;5.20;;;4.47;;
7193;SDS011;3638;48.820;9.244;2023-12-28T06:09:31;5.63;;;4.23;;
7193;SDS011;3638;48.820;9.244;2023-12-28T06:11:59;4.73;;;3.80;;
7193;SDS011;3638;48.820;9.244;2023-12-28T06:14:26;4.50;;;4.10;;
7193;SDS011;3638;48.820;9.244;2023-12-28T06:16:54;4.57;;;4.03;;
7193;SDS011;3638;48.820;9.244;2023-12-28T06:19:22;4.27;;;3.87;;
7193;SDS011;3638;48.820;9.244;2023-12-28T06:21:49;5.73;;;4.07;;
7193;SDS011;3638;48.820;9.244;2023-12-28T06:24:17;4.83;;;4.33;;
7193;SDS011;3638;48.820;9.244;2023-12-28T06:26:45;3.90;;;3.60;;
7193;SDS011;3638;48.820;9.244;2023-12-28T06:29:12;6.10;;;3.87;;
7193;SDS011;3638;48.820;9.244;2023-12-28T06:31:39;4.23;;;3.83;;
7193;SDS011;3638;48.820;9.244;2023-12-28T06:34:06;4.63;;;4.17;;
7193;SDS011;3638;48.820;9.244;2023-12-28T06:36:34;5.53;;;4.07;;
7193;SDS011;3638;48.820;9.244;2023-12-28T06:39:01;4.37;;;3.80;;
7193;SDS011;3638;48.820;9.244;2023-12-28T06:41:29;4.90;;;4.03;;
7193;SDS011;3638;48.820;9.244;2023-12-28T06:43:57;4.80;;;3.90;;
7193;SDS011;3638;48.820;9.244;2023-12-28T06:46:24;4.13;;;3.73;;
7193;SDS011;3638;48.820;9.244;2023-12-28T06:48:51;4.80;;;3.83;;
7193;SDS011;3638;48.820;9.244;2023-12-28T06:51:18;4.40;;;3.80;;
7193;SDS011;3638;48.820;9.244;2023-12-28T06:53:46;4.47;;;3.93;;
7193;SDS011;3638;48.820;9.244;2023-12-28T06:56:14;4.53;;;3.77;;
7193;SDS011;3638;48.820;9.244;2023-12-28T06:58:43;4.33;;;3.53;;
7193;SDS011;3638;48.820;9.244;2023-12-28T07:01:11;4.13;;;3.70;;
7193;SDS011;3638;48.820;9.244;2023-12-28T07:03:38;5.97;;;3.57;;
7193;SDS011;3638;48.820;9.244;2023-12-28T07:06:06;3.93;;;3.37;;
7193;SDS011;3638;48.820;9.244;2023-12-28T07:08:33;5.80;;;3.90;;
7193;SDS011;3638;48.820;9.244;2023-12-28T07:11:01;4.10;;;3.70;;
7193;SDS011;3638;48.820;9.244;2023-12-28T07:13:28;4.87;;;3.37;;
7193;SDS011;3638;48.820;9.244;2023-12-28T07:15:57;3.87;;;3.47;;
7193;SDS011;3638;48.820;9.244;2023-12-28T07:18:24;4.50;;;3.50;;
7193;SDS011;3638;48.820;9.244;2023-12-28T07:20:51;4.07;;;3.67;;
7193;SDS011;3638;48.820;9.244;2023-12-28T07:23:19;7.23;;;3.83;;
7193;SDS011;3638;48.820;9.244;2023-12-28T07:25:47;4.63;;;3.90;;
7193;SDS011;3638;48.820;9.244;2023-12-28T07:28:14;3.83;;;3.50;;
7193;SDS011;3638;48.820;9.244;2023-12-28T07:30:41;5.50;;;4.20;;
7193;SDS011;3638;48.820;9.244;2023-12-28T07:33:10;5.93;;;3.50;;
7193;SDS011;3638;48.820;9.244;2023-12-28T07:35:37;6.03;;;3.47;;
7193;SDS011;3638;48.820;9.244;2023-12-28T07:38:05;3.53;;;3.23;;
7193;SDS011;3638;48.820;9.244;2023-12-28T07:40:32;3.90;;;3.50;;
7193;SDS011;3638;48.820;9.244;2023-12-28T07:42:59;5.40;;;3.33;;
7193;SDS011;3638;48.820;9.244;2023-12-28T07:45:26;4.13;;;3.50;;
7193;SDS011;3638;48.820;9.244;2023-12-28T07:47:54;3.93;;;3.53;;
7193;SDS011;3638;48.820;9.244;2023-12-28T07:50:22;4.67;;;3.40;;
7193;SDS011;3638;48.820;9.244;2023-12-28T07:52:50;6.10;;;3.73;;
7193;SDS011;3638;48.820;9.244;2023-12-28T07:55:17;3.80;;;3.00;;
7193;SDS011;3638;48.820;9.244;2023-12-28T07:57:44;4.13;;;3.77;;
7193;SDS011;3638;48.820;9.244;2023-12-28T08:00:12;5.37;;;3.20;;
7193;SDS011;3638;48.820;9.244;2023-12-28T08:02:39;4.03;;;3.23;;
7193;SDS011;3638;48.820;9.244;2023-12-28T08:05:07;3.83;;;3.40;;
7193;SDS011;3638;48.820;9.244;2023-12-28T08:07:36;4.50;;;3.90;;
7193;SDS011;3638;48.820;9.244;2023-12-28T08:10:04;3.77;;;3.40;;
7193;SDS011;3638;48.820;9.244;2023-12-28T08:12:32;3.87;;;3.27;;
7193;SDS011;3638;48.820;9.244;2023-12-28T08:14:59;4.07;;;3.50;;
7193;SDS011;3638;48.820;9.244;2023-12-28T08:17:27;4.17;;;3.30;;
7193;SDS011;3638;48.820;9.244;2023-12-28T08:19:54;5.43;;;3.70;;
7193;SDS011;3638;48.820;9.244;2023-12-28T08:22:21;4.83;;;3.20;;
7193;SDS011;3638;48.820;9.244;2023-12-28T08:24:50;4.53;;;3.50;;
7193;SDS011;3638;48.820;9.244;2023-12-28T08:27:17;5.50;;;3.33;;
7193;SDS011;3638;48.820;9.244;2023-12-28T08:29:44;4.23;;;3.37;;
7193;SDS011;3638;48.820;9.244;2023-12-28T08:32:11;4.27;;;3.50;;
7193;SDS011;3638;48.820;9.244;2023-12-28T08:34:39;5.07;;;3.50;;
7193;SDS011;3638;48.820;9.244;2023-12-28T08:37:06;4.77;;;3.47;;
7193;SDS011;3638;48.820;9.244;2023-12-28T08:39:34;3.93;;;3.30;;
7193;SDS011;3638;48.820;9.244;2023-12-28T08:42:02;5.77;;;3.53;;
7193;SDS011;3638;48.820;9.244;2023-12-28T08:44:30;6.17;;;4.60;;
7193;SDS011;3638;48.820;9.244;2023-12-28T08:46:57;5.33;;;4.53;;
7193;SDS011;3638;48.820;9.244;2023-12-28T08:49:25;6.23;;;3.80;;
7193;SDS011;3638;48.820;9.244;2023-12-28T08:51:52;4.07;;;3.60;;
7193;SDS011;3638;48.820;9.244;2023-12-28T08:54:20;6.40;;;5.67;;
7193;SDS011;3638;48.820;9.244;2023-12-28T08:56:47;5.93;;;4.80;;
7193;SDS011;3638;48.820;9.244;2023-12-28T08:59:24;5.08;;;4.60;;
7193;SDS011;3638;48.820;9.244;2023-12-28T09:01:52;7.00;;;5.57;;
7193;SDS011;3638;48.820;9.244;2023-12-28T09:04:20;6.67;;;4.63;;
7193;SDS011;3638;48.820;9.244;2023-12-28T09:06:47;7.63;;;5.07;;
7193;SDS011;3638;48.820;9.244;2023-12-28T09:09:14;7.53;;;4.97;;
7193;SDS011;3638;48.820;9.244;2023-12-28T09:11:41;7.33;;;4.80;;
7193;SDS011;3638;48.820;9.244;2023-12-28T09:14:08;7.47;;;4.70;;
7193;SDS011;3638;48.820;9.244;2023-12-28T09:16:37;5.63;;;4.50;;
7193;SDS011;3638;48.820;9.244;2023-12-28T09:19:07;8.27;;;5.90;;
7193;SDS011;3638;48.820;9.244;2023-12-28T09:21:34;14.27;;;10.60;;
7193;SDS011;3638;48.820;9.244;2023-12-28T09:24:01;8.43;;;6.13;;
7193;SDS011;3638;48.820;9.244;2023-12-28T09:26:29;6.90;;;6.03;;
7193;SDS011;3638;48.820;9.244;2023-12-28T09:28:57;8.40;;;5.17;;
7193;SDS011;3638;48.820;9.244;2023-12-28T09:31:24;6.90;;;5.13;;
7193;SDS011;3638;48.820;9.244;2023-12-28T09:33:53;6.13;;;4.93;;
7193;SDS011;3638;48.820;9.244;2023-12-28T09:36:20;8.90;;;5.80;;
7193;SDS011;3638;48.820;9.244;2023-12-28T09:38:47;7.27;;;5.30;;
7193;SDS011;3638;48.820;9.244;2023-12-28T09:41:16;15.93;;;9.43;;
7193;SDS011;3638;48.820;9.244;2023-12-28T09:43:45;13.47;;;10.40;;
7193;SDS011;3638;48.820;9.244;2023-12-28T09:46:17;11.53;;;8.67;;
7193;SDS011;3638;48.820;9.244;2023-12-28T09:48:44;9.43;;;7.03;;
7193;SDS011;3638;48.820;9.244;2023-12-28T09:51:13;8.67;;;5.47;;
7193;SDS011;3638;48.820;9.244;2023-12-28T09:53:41;9.07;;;6.70;;
7193;SDS011;3638;48.820;9.244;2023-12-28T09:56:10;9.27;;;6.97;;
7193;SDS011;3638;48.820;9.244;2023-12-28T09:58:37;13.43;;;9.17;;
7193;SDS011;3638;48.820;9.244;2023-12-28T10:01:06;10.07;;;7.40;;
7193;SDS011;3638;48.820;9.244;2023-12-28T10:03:35;11.67;;;7.27;;
7193;SDS011;3638;48.820;9.244;2023-12-28T10:06:02;16.30;;;11.10;;
7193;SDS011;3638;48.820;9.244;2023-12-28T10:08:31;16.40;;;11.53;;
7193;SDS011;3638;48.820;9.244;2023-12-28T10:10:58;14.73;;;10.37;;
7193;SDS011;3638;48.820;9.244;2023-12-28T10:13:26;11.10;;;8.30;;
7193;SDS011;3638;48.820;9.244;2023-12-28T10:15:56;11.07;;;7.63;;
7193;SDS011;3638;48.820;9.244;2023-12-28T10:18:24;9.27;;;6.70;;
7193;SDS011;3638;48.820;9.244;2023-12-28T10:20:52;7.40;;;5.73;;
7193;SDS011;3638;48.820;9.244;2023-12-28T10:23:20;9.10;;;6.67;;
7193;SDS011;3638;48.820;9.244;2023-12-28T10:25:49;7.33;;;5.03;;
7193;SDS011;3638;48.820;9.244;2023-12-28T10:28:18;7.10;;;5.50;;
7193;SDS011;3638;48.820;9.244;2023-12-28T10:30:46;8.97;;;5.00;;
7193;SDS011;3638;48.820;9.244;2023-12-28T10:33:13;7.50;;;5.27;;
7193;SDS011;3638;48.820;9.244;2023-12-28T10:35:44;4.80;;;4.30;;
7193;SDS011;3638;48.820;9.244;2023-12-28T10:38:11;5.27;;;4.40;;
7193;SDS011;3638;48.820;9.244;2023-12-28T10:40:42;9.23;;;4.70;;
7193;SDS011;3638;48.820;9.244;2023-12-28T10:43:14;4.93;;;4.37;;
7193;SDS011;3638;48.820;9.244;2023-12-28T10:45:45;5.83;;;4.80;;
7193;SDS011;3638;48.820;9.244;2023-12-28T10:48:13;5.93;;;4.43;;
7193;SDS011;3638;48.820;9.244;2023-12-28T10:50:41;9.63;;;4.83;;
7193;SDS011;3638;48.820;9.244;2023-12-28T10:53:15;6.27;;;5.17;;
7193;SDS011;3638;48.820;9.244;2023-12-28T10:55:53;5.20;;;4.70;;
7193;SDS011;3638;48.820;9.244;2023-12-28T10:58:32;6.03;;;4.67;;
7193;SDS011;3638;48.820;9.244;2023-12-28T11:01:03;5.43;;;4.30;;
7193;SDS011;3638;48.820;9.244;2023-12-28T11:03:34;10.23;;;4.53;;
7193;SDS011;3638;48.820;9.244;2023-12-28T11:06:04;8.77;;;4.50;;
7193;SDS011;3638;48.820;9.244;2023-12-28T11:08:32;8.07;;;4.60;;
7193;SDS011;3638;48.820;9.244;2023-12-28T11:10:59;5.60;;;4.20;;
7193;SDS011;3638;48.820;9.244;2023-12-28T11:13:30;4.80;;;4.10;;
7193;SDS011;3638;48.820;9.244;2023-12-28T11:15:59;5.90;;;4.03;;
7193;SDS011;3638;48.820;9.244;2023-12-28T11:18:26;8.83;;;5.03;;
7193;SDS011;3638;48.820;9.244;2023-12-28T11:20:55;6.57;;;4.90;;
7193;SDS011;3638;48.820;9.244;2023-12-28T11:23:23;5.67;;;4.80;;
7193;SDS011;3638;48.820;9.244;2023-12-28T11:25:51;8.30;;;4.83;;
7193;SDS011;3638;48.820;9.244;2023-12-28T11:28:18;7.30;;;5.03;;
7193;SDS011;3638;48.820;9.244;2023-12-28T11:30:47;7.80;;;4.33;;
7193;SDS011;3638;48.820;9.244;2023-12-28T11:33:14;9.97;;;4.70;;
7193;SDS011;3638;48.820;9.244;2023-12-28T11:35:42;6.83;;;4.40;;
7193;SDS011;3638;48.820;9.244;2023-12-28T11:38:11;6.93;;;4.63;;
7193;SDS011;3638;48.820;9.244;2023-12-28T11:40:41;6.70;;;4.60;;
7193;SDS011;3638;48.820;9.244;2023-12-28T11:43:15;5.27;;;4.50;;
7193;SDS011;3638;48.820;9.244;2023-12-28T11:45:49;7.73;;;4.27;;
7193;SDS011;3638;48.820;9.244;2023-12-28T11:48:24;7.30;;;4.77;;
7193;SDS011;3638;48.820;9.244;2023-12-28T11:50:53;6.80;;;4.43;;
7193;SDS011;3638;48.820;9.244;2023-12-28T11:53:22;6.13;;;4.40;;
7193;SDS011;3638;48.820;9.244;2023-12-28T11:55:49;5.83;;;4.17;;
7193;SDS011;3638;48.820;9.244;2023-12-28T11:58:16;6.70;;;4.70;;
7193;SDS011;3638;48.820;9.244;2023-12-28T12:00:44;7.47;;;4.67;;
7193;SDS011;3638;48.820;9.244;2023-12-28T12:03:13;10.47;;;4.93;;
7193;SDS011;3638;48.820;9.244;2023-12-28T12:05:40;6.70;;;4.63;;
7193;SDS011;3638;48.820;9.244;2023-12-28T12:08:08;8.67;;;5.80;;
7193;SDS011;3638;48.820;9.244;2023-12-28T12:10:39;10.90;;;6.50;;
7193;SDS011;3638;48.820;9.244;2023-12-28T12:13:06;9.70;;;6.00;;
7193;SDS011;3638;48.820;9.244;2023-12-28T12:15:34;9.13;;;5.30;;
7193;SDS011;3638;48.820;9.244;2023-12-28T12:18:03;6.83;;;5.27;;
7193;SDS011;3638;48.820;9.244;2023-12-28T12:20:32;8.00;;;4.50;;
7193;SDS011;3638;48.820;9.244;2023-12-28T12:23:01;6.87;;;4.70;;
7193;SDS011;3638;48.820;9.244;2023-12-28T12:25:28;7.73;;;5.17;;
7193;SDS011;3638;48.820;9.244;2023-12-28T12:27:56;9.00;;;4.53;;
7193;SDS011;3638;48.820;9.244;2023-12-28T12:30:23;89.37;;;14.97;;
7193;SDS011;3638;48.820;9.244;2023-12-28T12:32:50;74.23;;;14.17;;
7193;SDS011;3638;48.820;9.244;2023-12-28T12:35:17;49.37;;;11.67;;
7193;SDS011;3638;48.820;9.244;2023-12-28T12:37:47;19.43;;;7.97;;
7193;SDS011;3638;48.820;9.244;2023-12-28T12:40:16;11.67;;;5.87;;
7193;SDS011;3638;48.820;9.244;2023-12-28T12:42:51;6.97;;;3.77;;
7193;SDS011;3638;48.820;9.244;2023-12-28T12:45:18;4.87;;;3.30;;
7193;SDS011;3638;48.820;9.244;2023-12-28T12:47:46;3.40;;;3.00;;
7193;SDS011;3638;48.820;9.244;2023-12-28T12:50:15;6.50;;;3.87;;
7193;SDS011;3638;48.820;9.244;2023-12-28T12:52:42;3.53;;;2.80;;
7193;SDS011;3638;48.820;9.244;2023-12-28T12:55:11;3.13;;;2.50;;
7193;SDS011;3638;48.820;9.244;2023-12-28T12:57:39;2.80;;;2.60;;
7193;SDS011;3638;48.820;9.244;2023-12-28T13:00:08;2.50;;;2.30;;
7193;SDS011;3638;48.820;9.244;2023-12-28T13:02:36;3.80;;;3.07;;
7193;SDS011;3638;48.820;9.244;2023-12-28T13:05:04;2.93;;;2.60;;
7193;SDS011;3638;48.820;9.244;2023-12-28T13:07:33;3.20;;;2.73;;
7193;SDS011;3638;48.820;9.244;2023-12-28T13:10:00;3.60;;;3.00;;
7193;SDS011;3638;48.820;9.244;2023-12-28T13:12:30;3.50;;;2.90;;
7193;SDS011;3638;48.820;9.244;2023-12-28T13:14:57;5.47;;;3.63;;
7193;SDS011;3638;48.820;9.244;2023-12-28T13:17:24;4.57;;;3.83;;
7193;SDS011;3638;48.820;9.244;2023-12-28T13:19:51;4.23;;;3.40;;
7193;SDS011;3638;48.820;9.244;2023-12-28T13:22:18;4.67;;;3.30;;
7193;SDS011;3638;48.820;9.244;2023-12-28T13:24:46;5.37;;;4.10;;
7193;SDS011;3638;48.820;9.244;2023-12-28T13:27:13;4.70;;;4.20;;
7193;SDS011;3638;48.820;9.244;2023-12-28T13:29:42;9.43;;;6.03;;
7193;SDS011;3638;48.820;9.244;2023-12-28T13:32:09;11.37;;;7.90;;
7193;SDS011;3638;48.820;9.244;2023-12-28T13:34:36;10.13;;;6.80;;
7193;SDS011;3638;48.820;9.244;2023-12-28T13:37:04;7.33;;;5.47;;
7193;SDS011;3638;48.820;9.244;2023-12-28T13:39:31;8.50;;;5.23;;
7193;SDS011;3638;48.820;9.244;2023-12-28T13:42:03;5.50;;;4.10;;
7193;SDS011;3638;48.820;9.244;2023-12-28T13:44:32;7.90;;;4.03;;
7193;SDS011;3638;48.820;9.244;2023-12-28T13:47:01;6.43;;;5.07;;
7193;SDS011;3638;48.820;9.244;2023-12-28T13:49:30;9.00;;;5.97;;
7193;SDS011;3638;48.820;9.244;2023-12-28T13:51:58;12.33;;;7.50;;
7193;SDS011;3638;48.820;9.244;2023-12-28T13:54:25;7.00;;;5.10;;
7193;SDS011;3638;48.820;9.244;2023-12-28T13:56:52;8.97;;;5.37;;
7193;SDS011;3638;48.820;9.244;2023-12-28T13:59:22;6.57;;;5.37;;
7193;SDS011;3638;48.820;9.244;2023-12-28T14:01:50;6.20;;;5.10;;
7193;SDS011;3638;48.820;9.244;2023-12-28T14:04:18;5.97;;;4.63;;
7193;SDS011;3638;48.820;9.244;2023-12-28T14:06:46;5.50;;;4.20;;
7193;SDS011;3638;48.820;9.244;2023-12-28T14:09:13;4.73;;;4.10;;
7193;SDS011;3638;48.820;9.244;2023-12-28T14:11:44;17.33;;;11.67;;
7193;SDS011;3638;48.820;9.244;2023-12-28T14:14:12;8.60;;;6.50;;
7193;SDS011;3638;48.820;9.244;2023-12-28T14:16:39;4.30;;;3.70;;
7193;SDS011;3638;48.820;9.244;2023-12-28T14:19:07;3.80;;;3.33;;
7193;SDS011;3638;48.820;9.244;2023-12-28T14:21:37;4.67;;;4.20;;
7193;SDS011;3638;48.820;9.244;2023-12-28T14:24:05;4.90;;;3.40;;
7193;SDS011;3638;48.820;9.244;2023-12-28T14:26:33;3.43;;;2.90;;
7193;SDS011;3638;48.820;9.244;2023-12-28T14:29:01;3.97;;;3.03;;
7193;SDS011;3638;48.820;9.244;2023-12-28T14:31:29;3.20;;;2.90;;
7193;SDS011;3638;48.820;9.244;2023-12-28T14:33:57;3.87;;;2.90;;
7193;SDS011;3638;48.820;9.244;2023-12-28T14:36:26;2.70;;;2.50;;
7193;SDS011;3638;48.820;9.244;2023-12-28T14:38:58;2.80;;;2.60;;
7193;SDS011;3638;48.820;9.244;2023-12-28T14:41:26;3.00;;;2.80;;
7193;SDS011;3638;48.820;9.244;2023-12-28T14:43:55;4.03;;;2.90;;
7193;SDS011;3638;48.820;9.244;2023-12-28T14:46:22;2.93;;;2.60;;
7193;SDS011;3638;48.820;9.244;2023-12-28T14:48:50;2.70;;;2.50;;
7193;SDS011;3638;48.820;9.244;2023-12-28T14:51:17;2.70;;;2.50;;
7193;SDS011;3638;48.820;9.244;2023-12-28T14:53:44;2.87;;;2.57;;
7193;SDS011;3638;48.820;9.244;2023-12-28T14:56:13;3.83;;;2.73;;
7193;SDS011;3638;48.820;9.244;2023-12-28T14:58:41;4.20;;;2.87;;
7193;SDS011;3638;48.820;9.244;2023-12-28T15:01:10;3.13;;;2.83;;
7193;SDS011;3638;48.820;9.244;2023-12-28T15:03:37;3.77;;;3.10;;
7193;SDS011;3638;48.820;9.244;2023-12-28T15:06:05;3.64;;;3.24;;
7193;SDS011;3638;48.820;9.244;2023-12-28T15:08:32;3.40;;;3.10;;
7193;SDS011;3638;48.820;9.244;2023-12-28T15:10:59;4.70;;;3.27;;
7193;SDS011;3638;48.820;9.244;2023-12-28T15:13:29;3.87;;;3.40;;
7193;SDS011;3638;48.820;9.244;2023-12-28T15:15:57;6.13;;;3.83;;
7193;SDS011;3638;48.820;9.244;2023-12-28T15:18:25;5.20;;;4.00;;
7193;SDS011;3638;48.820;9.244;2023-12-28T15:20:53;5.10;;;3.30;;